Time;durP1;ratioP1;P1;durP2;ratioP2;P2;SDS_P1;SDS_P2;PMS_P1;PMS_P2;Temp;Humidity;BMP_temperature;BMP_pressure;BME280_temperature;BME280_humidity;BME280_pressure;Samples;Min_cycle;Max_cycle;Signal;HPM_P1;HPM_P2
2021/12/09 00:01:27;;;;;;;2.97;1.90;;;8.70;79.60;;;;;;5139355;27;20066;-54
2021/12/09 00:04:00;;;;;;;2.80;1.98;;;8.70;79.60;;;;;;5137875;27;20043;-54
2021/12/09 00:06:28;;;;;;;1.88;1.70;;;8.70;79.60;;;;;;5155489;27;20043;-55
2021/12/09 00:08:57;;;;;;;1.55;1.38;;;8.70;79.60;;;;;;5157036;27;20126;-54
2021/12/09 00:11:23;;;;;;;1.90;1.70;;;8.70;79.60;;;;;;5136015;27;20042;-48
2021/12/09 00:13:50;;;;;;;2.78;2.00;;;8.70;79.60;;;;;;5162030;27;20110;-50
2021/12/09 00:16:16;;;;;;;2.28;1.73;;;8.60;79.60;;;;;;5165476;27;20084;-53
2021/12/09 00:18:43;;;;;;;2.28;2.08;;;8.60;79.60;;;;;;5174522;27;20493;-54
2021/12/09 00:21:10;;;;;;;3.30;2.05;;;8.70;79.60;;;;;;5158981;27;20046;-53
2021/12/09 00:23:35;;;;;;;3.33;1.88;;;8.70;79.60;;;;;;5119941;27;20051;-53
2021/12/09 00:26:01;;;;;;;2.65;2.00;;;8.70;79.60;;;;;;5136998;27;20038;-53
2021/12/09 00:28:27;;;;;;;2.28;2.00;;;8.70;79.60;;;;;;5157071;27;20042;-51
2021/12/09 00:30:53;;;;;;;2.83;2.17;;;8.70;79.60;;;;;;5136829;27;20444;-53
2021/12/09 00:33:19;;;;;;;2.63;2.08;;;8.70;79.60;;;;;;5142535;27;20911;-53
2021/12/09 00:35:50;;;;;;;2.30;1.88;;;8.60;79.60;;;;;;5139947;27;20251;-54
2021/12/09 00:38:33;;;;;;;1.92;1.75;;;8.60;79.60;;;;;;5174072;27;20390;-52
2021/12/09 00:40:59;;;;;;;2.47;2.08;;;8.70;79.60;;;;;;5136459;27;20046;-53
2021/12/09 00:43:25;;;;;;;1.75;1.63;;;8.60;79.60;;;;;;5136554;27;20054;-48
2021/12/09 00:45:52;;;;;;;2.15;1.55;;;8.70;79.70;;;;;;5136651;27;20046;-52
2021/12/09 00:48:18;;;;;;;2.35;1.70;;;8.70;79.60;;;;;;5155244;27;20053;-52
2021/12/09 00:50:44;;;;;;;2.10;1.80;;;8.70;79.60;;;;;;5137459;27;20047;-51
2021/12/09 00:53:11;;;;;;;2.58;1.77;;;8.60;79.60;;;;;;5142849;27;20053;-51
2021/12/09 00:55:37;;;;;;;3.58;2.03;;;8.70;79.60;;;;;;5175860;27;20046;-54
2021/12/09 00:58:04;;;;;;;2.15;1.85;;;8.70;79.60;;;;;;5175836;27;20084;-51
2021/12/09 01:00:33;;;;;;;3.03;1.98;;;8.60;79.50;;;;;;5120286;27;20106;-52
2021/12/09 01:02:59;;;;;;;1.95;1.77;;;8.60;79.60;;;;;;5156217;27;20050;-52
2021/12/09 01:05:26;;;;;;;4.10;2.00;;;8.70;79.60;;;;;;5154603;27;20507;-53
2021/12/09 01:07:52;;;;;;;2.30;1.90;;;8.70;79.60;;;;;;5135815;27;20050;-52
2021/12/09 01:10:18;;;;;;;2.13;1.90;;;8.60;79.50;;;;;;5155382;27;20046;-51
2021/12/09 01:12:44;;;;;;;2.35;2.10;;;8.60;79.60;;;;;;5163776;27;20039;-52
2021/12/09 01:15:12;;;;;;;2.30;1.98;;;8.70;79.60;;;;;;5156618;27;20501;-52
2021/12/09 01:17:38;;;;;;;2.80;1.98;;;8.60;79.50;;;;;;5148642;27;20075;-53
2021/12/09 01:20:07;;;;;;;2.70;2.03;;;8.60;79.50;;;;;;5154554;27;20038;-54
2021/12/09 01:22:40;;;;;;;2.97;1.85;;;8.60;79.50;;;;;;5155581;27;20053;-53
2021/12/09 01:25:08;;;;;;;2.42;1.85;;;8.60;79.50;;;;;;5153804;27;20103;-48
2021/12/09 01:27:37;;;;;;;1.98;1.65;;;8.60;79.50;;;;;;5170977;27;20331;-50
2021/12/09 01:30:10;;;;;;;3.70;1.92;;;8.70;79.60;;;;;;5156237;27;20049;-48
2021/12/09 01:32:36;;;;;;;2.35;2.10;;;8.70;79.50;;;;;;5158676;27;20051;-50
2021/12/09 01:35:03;;;;;;;3.13;2.20;;;8.60;79.50;;;;;;5172472;27;20039;-51
2021/12/09 01:37:30;;;;;;;3.00;2.22;;;8.70;79.60;;;;;;5154954;27;20125;-54
2021/12/09 01:39:55;;;;;;;3.58;2.42;;;8.60;79.50;;;;;;5154070;27;20114;-52
2021/12/09 01:42:22;;;;;;;3.55;2.20;;;8.60;79.50;;;;;;5168533;27;20070;-53
2021/12/09 01:44:47;;;;;;;2.88;2.00;;;8.60;79.50;;;;;;5138843;27;20066;-48
2021/12/09 01:47:13;;;;;;;2.67;2.20;;;8.60;79.50;;;;;;5168800;27;20138;-51
2021/12/09 01:49:39;;;;;;;2.40;2.20;;;8.70;79.60;;;;;;5135268;27;20057;-50
2021/12/09 01:52:06;;;;;;;3.30;2.05;;;8.70;79.50;;;;;;5156184;27;20502;-50
2021/12/09 01:54:32;;;;;;;2.20;2.00;;;8.70;79.60;;;;;;5173116;27;20081;-52
2021/12/09 01:56:59;;;;;;;3.40;2.30;;;8.60;79.50;;;;;;5155659;27;20042;-51
2021/12/09 01:59:25;;;;;;;2.85;2.17;;;8.70;79.60;;;;;;5156182;27;20402;-52
2021/12/09 02:01:51;;;;;;;2.78;2.30;;;8.60;79.50;;;;;;5153884;27;20049;-52
2021/12/09 02:04:17;;;;;;;2.80;2.00;;;8.60;80.20;;;;;;5169594;27;20090;-52
2021/12/09 02:06:43;;;;;;;2.50;2.17;;;8.60;79.50;;;;;;5156149;27;20560;-53
2021/12/09 02:09:14;;;;;;;4.05;2.55;;;8.60;79.60;;;;;;5158558;27;20050;-53
2021/12/09 02:11:41;;;;;;;2.03;1.83;;;8.60;79.50;;;;;;5144686;27;20121;-51
2021/12/09 02:14:07;;;;;;;2.85;2.30;;;8.60;79.50;;;;;;5151649;27;20054;-53
2021/12/09 02:16:33;;;;;;;4.00;2.20;;;8.60;79.50;;;;;;5158236;27;20042;-52
2021/12/09 02:19:00;;;;;;;2.35;1.95;;;8.60;79.50;;;;;;5173976;27;20390;-54
2021/12/09 02:21:29;;;;;;;3.33;2.10;;;8.60;79.50;;;;;;5174702;27;20081;-52
2021/12/09 02:24:03;;;;;;;2.15;1.75;;;8.60;79.50;;;;;;5142657;27;20054;-52
2021/12/09 02:26:36;;;;;;;2.05;1.83;;;8.60;79.50;;;;;;5174858;27;20049;-53
2021/12/09 02:29:04;;;;;;;3.10;2.22;;;8.60;79.60;;;;;;5143568;27;20054;-50
2021/12/09 02:31:31;;;;;;;3.78;2.38;;;8.60;79.50;;;;;;5153733;27;20121;-53
2021/12/09 02:33:57;;;;;;;2.55;2.33;;;8.60;79.50;;;;;;5153767;27;20042;-53
2021/12/09 02:36:24;;;;;;;4.22;2.50;;;8.60;79.50;;;;;;5167759;27;20046;-52
2021/12/09 02:38:50;;;;;;;2.50;2.20;;;8.60;79.60;;;;;;5178507;27;20038;-49
2021/12/09 02:41:20;;;;;;;2.30;2.10;;;8.60;79.60;;;;;;5155494;27;20042;-51
2021/12/09 02:43:50;;;;;;;2.40;2.10;;;8.60;79.60;;;;;;5157517;27;20049;-49
2021/12/09 02:46:17;;;;;;;2.42;2.10;;;8.60;79.50;;;;;;5139878;27;20107;-53
2021/12/09 02:48:44;;;;;;;2.22;1.95;;;8.60;79.50;;;;;;5157472;27;20053;-54
2021/12/09 02:51:10;;;;;;;3.25;2.58;;;8.60;79.50;;;;;;5157601;27;20350;-52
2021/12/09 02:53:37;;;;;;;3.10;2.33;;;8.60;79.50;;;;;;5174735;27;20158;-52
2021/12/09 02:56:04;;;;;;;2.95;2.30;;;8.60;79.50;;;;;;5178488;27;20122;-49
2021/12/09 02:58:30;;;;;;;3.17;2.40;;;8.60;79.50;;;;;;5157460;27;20098;-52
2021/12/09 03:01:01;;;;;;;3.67;2.20;;;8.60;79.50;;;;;;5177629;27;20494;-52
2021/12/09 03:03:27;;;;;;;2.47;2.20;;;8.60;79.50;;;;;;5141492;27;20507;-52
2021/12/09 03:05:56;;;;;;;3.17;2.30;;;8.60;79.50;;;;;;5178023;27;20090;-54
2021/12/09 03:08:33;;;;;;;2.70;2.22;;;8.60;79.50;;;;;;5176365;27;20054;-52
2021/12/09 03:11:04;;;;;;;4.13;2.83;;;8.60;79.50;;;;;;5178014;27;20540;-53
2021/12/09 03:13:30;;;;;;;2.45;2.20;;;8.60;79.50;;;;;;5155287;27;20092;-54
2021/12/09 03:15:56;;;;;;;4.65;2.60;;;8.60;79.50;;;;;;5177390;27;20085;-54
2021/12/09 03:18:22;;;;;;;2.95;2.58;;;8.60;79.60;;;;;;5157253;27;20038;-53
2021/12/09 03:20:47;;;;;;;3.33;2.55;;;8.60;79.50;;;;;;5177375;27;20488;-49
2021/12/09 03:23:13;;;;;;;2.60;2.13;;;8.60;79.50;;;;;;5174561;27;20086;-54
2021/12/09 03:25:41;;;;;;;3.83;2.95;;;8.60;79.60;;;;;;5158106;27;20586;-53
2021/12/09 03:28:06;;;;;;;2.38;2.17;;;8.60;79.50;;;;;;5138365;27;20043;-50
2021/12/09 03:30:32;;;;;;;3.05;2.40;;;8.60;79.50;;;;;;5157573;27;20142;-53
2021/12/09 03:32:57;;;;;;;3.47;2.55;;;8.60;79.60;;;;;;5160687;27;20039;-56
2021/12/09 03:35:23;;;;;;;2.95;2.28;;;8.60;79.50;;;;;;5176731;27;20038;-54
2021/12/09 03:37:49;;;;;;;3.08;2.42;;;8.60;79.50;;;;;;5177538;27;20038;-53
2021/12/09 03:40:15;;;;;;;2.50;2.30;;;8.60;79.50;;;;;;5175567;27;20039;-53
2021/12/09 03:42:43;;;;;;;2.63;2.28;;;8.60;79.50;;;;;;5177166;27;20030;-53
2021/12/09 03:45:10;;;;;;;3.45;2.80;;;8.60;79.50;;;;;;5158284;27;20482;-53
2021/12/09 03:47:37;;;;;;;3.00;2.60;;;8.60;79.50;;;;;;5157682;27;20039;-51
2021/12/09 03:50:06;;;;;;;3.33;2.70;;;8.60;79.50;;;;;;5152403;27;20050;-52
2021/12/09 03:52:32;;;;;;;2.88;2.53;;;8.60;79.50;;;;;;5156337;27;20051;-51
2021/12/09 03:54:58;;;;;;;2.85;2.65;;;8.60;79.50;;;;;;5148513;27;20041;-53
2021/12/09 03:57:25;;;;;;;3.00;2.47;;;8.60;79.50;;;;;;5135443;27;20039;-53
2021/12/09 03:59:51;;;;;;;2.97;2.67;;;8.60;79.50;;;;;;5139208;27;20034;-52
2021/12/09 04:02:17;;;;;;;2.67;2.22;;;8.60;79.50;;;;;;5154409;27;20061;-53
2021/12/09 04:04:43;;;;;;;3.58;2.78;;;8.60;79.50;;;;;;5135213;27;20418;-52
2021/12/09 04:07:09;;;;;;;2.92;2.30;;;8.60;79.50;;;;;;5133905;27;20058;-52
2021/12/09 04:09:36;;;;;;;3.08;2.45;;;8.60;79.50;;;;;;5132880;27;20189;-51
2021/12/09 04:12:01;;;;;;;2.80;2.28;;;8.60;79.50;;;;;;5137499;27;20050;-50
2021/12/09 04:14:27;;;;;;;3.05;2.63;;;8.60;79.50;;;;;;5145505;27;20043;-50
2021/12/09 04:16:53;;;;;;;3.30;2.60;;;8.60;79.50;;;;;;5133942;27;20047;-52
2021/12/09 04:19:19;;;;;;;3.33;2.65;;;8.60;79.50;;;;;;5151336;27;20125;-53
2021/12/09 04:21:45;;;;;;;3.10;2.42;;;8.60;79.50;;;;;;5145975;27;20231;-52
2021/12/09 04:24:13;;;;;;;4.18;2.83;;;8.60;79.50;;;;;;5133825;27;20039;-51
2021/12/09 04:26:41;;;;;;;2.72;2.53;;;8.60;79.50;;;;;;5145676;27;20043;-52
2021/12/09 04:29:08;;;;;;;3.28;2.70;;;8.60;79.50;;;;;;5137078;27;20066;-52
2021/12/09 04:31:34;;;;;;;3.00;2.70;;;8.60;79.50;;;;;;5151207;27;20058;-47
2021/12/09 04:34:00;;;;;;;3.67;2.88;;;8.70;79.50;;;;;;5134435;27;20478;-51
2021/12/09 04:36:26;;;;;;;3.22;2.70;;;8.60;79.50;;;;;;5132948;27;20115;-53
2021/12/09 04:38:53;;;;;;;2.88;2.47;;;8.60;79.50;;;;;;5153870;27;20058;-52
2021/12/09 04:41:19;;;;;;;2.70;2.50;;;8.60;79.50;;;;;;5145095;27;20168;-52
2021/12/09 04:43:45;;;;;;;3.70;2.70;;;8.60;79.50;;;;;;5135475;27;20079;-51
2021/12/09 04:46:12;;;;;;;3.47;2.63;;;8.60;79.50;;;;;;5135624;27;20395;-52
2021/12/09 04:48:38;;;;;;;2.33;2.13;;;8.60;79.50;;;;;;5157216;27;20039;-53
2021/12/09 04:51:04;;;;;;;4.13;2.47;;;8.60;79.40;;;;;;5175896;27;20454;-51
2021/12/09 04:53:31;;;;;;;4.13;2.83;;;8.60;79.50;;;;;;5173858;27;20454;-52
2021/12/09 04:55:57;;;;;;;3.20;2.53;;;8.60;79.40;;;;;;5176230;27;20042;-51
2021/12/09 04:58:23;;;;;;;3.08;2.78;;;8.60;79.40;;;;;;5165772;27;20064;-49
2021/12/09 05:00:50;;;;;;;3.83;2.47;;;8.60;79.40;;;;;;5154923;27;20039;-47
2021/12/09 05:03:16;;;;;;;4.28;2.67;;;8.50;79.40;;;;;;5156129;27;20071;-54
2021/12/09 05:05:49;;;;;;;2.95;2.65;;;8.60;79.50;;;;;;5136133;27;20054;-52
2021/12/09 05:08:17;;;;;;;3.72;2.78;;;8.60;79.50;;;;;;5147068;27;20369;-51
2021/12/09 05:11:01;;;;;;;3.80;2.97;;;8.50;79.40;;;;;;5175441;27;20046;-54
2021/12/09 05:13:30;;;;;;;3.60;2.90;;;8.60;79.40;;;;;;5162600;27;20064;-54
2021/12/09 05:15:57;;;;;;;3.42;2.63;;;8.60;79.40;;;;;;5154393;27;20050;-53
2021/12/09 05:18:24;;;;;;;3.58;2.70;;;8.60;79.40;;;;;;5172668;27;20050;-52
2021/12/09 05:20:50;;;;;;;3.75;3.00;;;8.60;79.40;;;;;;5175320;27;20117;-51
2021/12/09 05:23:18;;;;;;;4.18;2.50;;;8.60;79.50;;;;;;5164370;27;20122;-48
2021/12/09 05:25:44;;;;;;;3.03;2.72;;;8.60;79.40;;;;;;5154317;27;20039;-50
2021/12/09 05:28:12;;;;;;;3.65;2.55;;;8.60;79.40;;;;;;5135762;27;20398;-52
2021/12/09 05:30:39;;;;;;;3.97;3.15;;;8.60;79.40;;;;;;5135737;27;20055;-52
2021/12/09 05:33:06;;;;;;;3.33;2.92;;;8.60;79.40;;;;;;5154202;27;20045;-53
2021/12/09 05:35:34;;;;;;;3.13;2.38;;;8.50;79.40;;;;;;5137112;27;20129;-54
2021/12/09 05:38:00;;;;;;;3.30;2.85;;;8.50;79.40;;;;;;5155352;27;20133;-52
2021/12/09 05:40:26;;;;;;;3.88;2.72;;;8.50;79.40;;;;;;5165758;27;20050;-53
2021/12/09 05:42:52;;;;;;;3.00;2.60;;;8.50;79.30;;;;;;5139881;27;20058;-52
2021/12/09 05:45:18;;;;;;;3.47;2.90;;;8.60;79.40;;;;;;5133352;27;20038;-54
2021/12/09 05:47:44;;;;;;;3.75;2.60;;;8.50;79.30;;;;;;5157481;27;20046;-53
2021/12/09 05:50:11;;;;;;;3.00;2.65;;;8.50;79.40;;;;;;5174482;27;20481;-54
2021/12/09 05:52:37;;;;;;;3.97;3.15;;;8.60;79.40;;;;;;5174637;27;20066;-53
2021/12/09 05:55:03;;;;;;;3.30;2.80;;;8.50;79.40;;;;;;5153780;27;20529;-52
2021/12/09 05:57:29;;;;;;;4.90;3.42;;;8.50;79.30;;;;;;5155690;27;20447;-53
2021/12/09 05:59:55;;;;;;;3.33;2.75;;;8.50;79.40;;;;;;5174949;27;20042;-52
2021/12/09 06:02:21;;;;;;;3.50;3.10;;;8.50;79.30;;;;;;5171278;27;20091;-52
2021/12/09 06:04:47;;;;;;;3.05;2.72;;;8.50;79.40;;;;;;5155591;27;20137;-54
2021/12/09 06:07:14;;;;;;;2.90;2.70;;;8.50;79.30;;;;;;5173187;27;20038;-52
2021/12/09 06:09:40;;;;;;;3.40;2.80;;;8.50;79.40;;;;;;5137312;27;20154;-54
2021/12/09 06:12:07;;;;;;;3.25;2.95;;;8.50;79.40;;;;;;5147995;27;20130;-51
2021/12/09 06:14:33;;;;;;;4.03;2.83;;;8.50;79.40;;;;;;5150557;27;20038;-52
2021/12/09 06:16:59;;;;;;;3.40;3.10;;;8.50;79.40;;;;;;5153096;27;20147;-55
2021/12/09 06:19:25;;;;;;;3.47;3.17;;;8.50;79.40;;;;;;5153785;27;20126;-54
2021/12/09 06:21:51;;;;;;;3.63;2.80;;;8.60;79.40;;;;;;5153942;27;20034;-50
2021/12/09 06:24:18;;;;;;;3.88;3.20;;;8.50;79.40;;;;;;5151905;27;20382;-53
2021/12/09 06:26:45;;;;;;;4.20;2.80;;;8.50;79.40;;;;;;5173079;27;20034;-51
2021/12/09 06:29:10;;;;;;;4.13;2.85;;;8.50;79.40;;;;;;5135025;27;20049;-50
2021/12/09 06:31:36;;;;;;;3.15;2.75;;;8.60;79.40;;;;;;5153656;27;20042;-48
2021/12/09 06:34:02;;;;;;;3.78;2.90;;;8.50;79.40;;;;;;5158093;27;20068;-52
2021/12/09 06:36:28;;;;;;;3.85;3.15;;;8.50;79.40;;;;;;5153732;27;20480;-52
2021/12/09 06:38:54;;;;;;;3.72;2.83;;;8.50;79.40;;;;;;5154755;27;20046;-52
2021/12/09 06:41:21;;;;;;;4.32;2.72;;;8.50;79.40;;;;;;5153814;27;20047;-54
2021/12/09 06:43:47;;;;;;;4.50;3.08;;;8.50;79.40;;;;;;5147134;27;20050;-48
2021/12/09 06:46:13;;;;;;;3.53;2.72;;;8.50;79.40;;;;;;5174540;27;20038;-51
2021/12/09 06:48:40;;;;;;;2.97;2.67;;;8.50;79.40;;;;;;5172271;27;20045;-49
2021/12/09 06:51:06;;;;;;;3.20;2.53;;;8.50;79.40;;;;;;5162996;27;20575;-50
2021/12/09 06:53:36;;;;;;;3.10;2.75;;;8.50;79.40;;;;;;5153575;27;20488;-53
2021/12/09 06:56:03;;;;;;;3.15;2.58;;;8.50;79.30;;;;;;5163744;27;20439;-52
2021/12/09 06:58:29;;;;;;;5.75;3.13;;;8.50;79.30;;;;;;5145775;27;20073;-52
2021/12/09 07:00:56;;;;;;;4.35;3.20;;;8.50;79.30;;;;;;5152995;27;20395;-53
2021/12/09 07:03:22;;;;;;;2.75;2.53;;;8.50;79.30;;;;;;5154466;27;20068;-52
2021/12/09 07:05:50;;;;;;;3.30;2.83;;;8.50;79.30;;;;;;5152958;27;20486;-50
2021/12/09 07:08:16;;;;;;;3.58;3.28;;;8.50;79.40;;;;;;5152920;27;20097;-52
2021/12/09 07:10:42;;;;;;;3.53;2.90;;;8.50;79.30;;;;;;5127885;27;20133;-50
2021/12/09 07:13:08;;;;;;;4.55;2.92;;;8.50;79.30;;;;;;5153680;27;20073;-53
2021/12/09 07:15:35;;;;;;;3.92;3.03;;;8.50;79.30;;;;;;5133738;27;20057;-49
2021/12/09 07:18:01;;;;;;;3.28;2.97;;;8.50;79.30;;;;;;5153665;27;20128;-52
2021/12/09 07:20:30;;;;;;;3.65;3.28;;;8.50;79.40;;;;;;5154888;27;20427;-52
2021/12/09 07:22:57;;;;;;;3.20;2.90;;;8.50;79.30;;;;;;5156933;27;20082;-50
2021/12/09 07:25:25;;;;;;;5.82;3.05;;;8.50;79.30;;;;;;5158407;27;20056;-51
2021/12/09 07:27:51;;;;;;;3.58;2.85;;;8.50;79.30;;;;;;5164014;27;20069;-53
2021/12/09 07:30:18;;;;;;;4.45;2.97;;;8.50;79.30;;;;;;5175484;27;20081;-45
2021/12/09 07:32:45;;;;;;;3.60;3.05;;;8.50;79.30;;;;;;5175989;27;20557;-49
2021/12/09 07:35:12;;;;;;;6.03;3.60;;;8.50;79.30;;;;;;5162054;27;20027;-52
2021/12/09 07:37:38;;;;;;;3.88;3.22;;;8.50;79.30;;;;;;5159258;27;20094;-51
2021/12/09 07:40:07;;;;;;;4.28;3.30;;;8.50;79.30;;;;;;5158909;27;20412;-51
2021/12/09 07:42:33;;;;;;;4.07;2.88;;;8.50;79.30;;;;;;5157162;27;20050;-48
2021/12/09 07:44:59;;;;;;;3.55;3.20;;;8.50;79.40;;;;;;5167653;27;20125;-49
2021/12/09 07:47:25;;;;;;;4.38;3.20;;;8.50;79.30;;;;;;5120178;27;20513;-53
2021/12/09 07:49:51;;;;;;;4.57;3.00;;;8.50;79.30;;;;;;5163790;27;20046;-51
2021/12/09 07:52:16;;;;;;;3.67;3.17;;;8.50;79.30;;;;;;5156643;27;20358;-48
2021/12/09 07:54:42;;;;;;;3.30;3.00;;;8.40;79.30;;;;;;5177447;27;20046;-52
2021/12/09 07:57:08;;;;;;;3.30;2.95;;;8.50;79.30;;;;;;5142621;27;20099;-52
2021/12/09 07:59:35;;;;;;;4.13;3.15;;;8.50;79.30;;;;;;5162110;27;20042;-52
2021/12/09 08:02:00;;;;;;;4.60;3.10;;;8.60;79.40;;;;;;5157056;27;20390;-52
2021/12/09 08:04:27;;;;;;;3.33;2.85;;;8.50;79.30;;;;;;5177012;27;20049;-53
2021/12/09 08:06:53;;;;;;;3.83;3.30;;;8.50;79.30;;;;;;5177165;27;20042;-49
2021/12/09 08:09:18;;;;;;;3.92;3.00;;;8.50;79.30;;;;;;5140429;27;20043;-51
2021/12/09 08:11:47;;;;;;;3.75;3.10;;;8.50;79.30;;;;;;5137062;27;20049;-49
2021/12/09 08:14:15;;;;;;;3.80;2.95;;;8.40;79.20;;;;;;5168737;27;20558;-51
2021/12/09 08:16:42;;;;;;;5.75;3.38;;;8.50;79.30;;;;;;5153048;27;20045;-46
2021/12/09 08:19:13;;;;;;;3.75;3.25;;;8.50;79.30;;;;;;5171510;27;20038;-53
2021/12/09 08:21:40;;;;;;;4.20;3.13;;;8.50;79.30;;;;;;5169476;27;20070;-53
2021/12/09 08:24:08;;;;;;;4.18;3.45;;;8.40;79.30;;;;;;5161362;27;20411;-48
2021/12/09 08:26:35;;;;;;;3.70;3.30;;;8.40;79.20;;;;;;5167706;27;20370;-49
2021/12/09 08:29:02;;;;;;;4.45;3.00;;;8.40;79.20;;;;;;5157632;27;20125;-51
2021/12/09 08:31:29;;;;;;;4.05;3.22;;;8.50;79.30;;;;;;5174419;27;20042;-52
2021/12/09 08:33:56;;;;;;;4.25;3.78;;;8.50;79.30;;;;;;5137264;27;20037;-48
2021/12/09 08:36:22;;;;;;;4.13;3.10;;;8.40;79.20;;;;;;5154840;27;20406;-51
2021/12/09 08:38:47;;;;;;;4.90;3.35;;;8.50;79.30;;;;;;5155348;27;20046;-46
2021/12/09 08:41:15;;;;;;;3.92;3.13;;;8.50;79.30;;;;;;5136900;27;20045;-49
2021/12/09 08:43:41;;;;;;;4.90;3.30;;;8.50;79.30;;;;;;5155801;27;20038;-50
2021/12/09 08:46:07;;;;;;;4.47;3.47;;;8.50;79.30;;;;;;5172935;27;20038;-52
2021/12/09 08:48:32;;;;;;;3.13;2.83;;;8.40;79.20;;;;;;5136545;27;20054;-51
2021/12/09 08:50:58;;;;;;;4.43;3.08;;;8.40;79.20;;;;;;5155636;27;20058;-50
2021/12/09 08:53:25;;;;;;;4.07;3.40;;;8.50;79.30;;;;;;5165529;27;20042;-51
2021/12/09 08:55:53;;;;;;;4.80;3.38;;;8.50;79.30;;;;;;5174153;27;20546;-52
2021/12/09 08:58:19;;;;;;;3.88;3.35;;;8.50;79.30;;;;;;5175530;27;20434;-52
2021/12/09 09:00:46;;;;;;;3.92;3.15;;;8.40;79.20;;;;;;5175823;27;20081;-52
2021/12/09 09:03:13;;;;;;;5.75;3.53;;;8.50;79.50;;;;;;5166792;27;20087;-51
2021/12/09 09:05:41;;;;;;;5.55;3.15;;;8.50;79.30;;;;;;5155990;27;20091;-53
2021/12/09 09:08:07;;;;;;;3.30;3.00;;;8.40;79.30;;;;;;5154340;27;20042;-52
2021/12/09 09:10:36;;;;;;;4.38;3.03;;;8.40;79.20;;;;;;5156340;27;20445;-48
2021/12/09 09:13:03;;;;;;;4.03;3.13;;;8.40;79.30;;;;;;5159634;27;20335;-47
2021/12/09 09:15:31;;;;;;;4.72;3.42;;;8.40;79.30;;;;;;5153647;27;20080;-47
2021/12/09 09:17:57;;;;;;;12.48;6.40;;;8.40;79.50;;;;;;5155805;27;20114;-62
2021/12/09 09:20:25;;;;;;;12.23;6.47;;;8.40;78.40;;;;;;5154362;27;20049;-60
2021/12/09 09:22:51;;;;;;;8.73;5.60;;;8.30;77.30;;;;;;5164269;27;20049;-59
2021/12/09 09:25:22;;;;;;;9.70;5.40;;;8.20;77.90;;;;;;5135563;27;20065;-61
2021/12/09 09:27:48;;;;;;;7.82;6.05;;;8.20;78.10;;;;;;5151604;27;20397;-60
2021/12/09 09:30:18;;;;;;;6.82;6.07;;;8.30;78.10;;;;;;5156206;27;20186;-60
2021/12/09 09:32:50;;;;;;;9.00;5.80;;;8.30;78.00;;;;;;5145998;27;20038;-60
2021/12/09 09:35:19;;;;;;;9.85;5.55;;;8.40;77.90;;;;;;5153905;27;20046;-59
2021/12/09 09:37:48;;;;;;;7.90;5.55;;;8.50;77.90;;;;;;5154935;27;20050;-59
2021/12/09 09:40:16;;;;;;;12.07;5.78;;;8.50;77.60;;;;;;5135082;27;20491;-60
2021/12/09 09:45:11;;;;;;;7.30;5.28;;;8.70;77.50;;;;;;5162358;27;20497;-60
2021/12/09 09:47:37;;;;;;;8.82;5.20;;;8.70;77.40;;;;;;5154910;27;20094;-59
2021/12/09 09:50:05;;;;;;;7.68;5.10;;;8.70;77.30;;;;;;5153943;27;20058;-58
2021/12/09 09:52:32;;;;;;;10.30;5.30;;;8.80;77.20;;;;;;5153823;27;20093;-60
2021/12/09 09:54:59;;;;;;;10.13;5.55;;;8.80;77.20;;;;;;5174345;27;20389;-59
2021/12/09 09:57:25;;;;;;;9.18;5.65;;;8.80;77.10;;;;;;5155976;27;20470;-60
2021/12/09 09:59:51;;;;;;;8.52;5.68;;;8.90;77.10;;;;;;5134613;27;20055;-60
2021/12/09 10:02:18;;;;;;;8.45;5.03;;;8.80;77.00;;;;;;5169983;27;21812;-60
2021/12/09 10:04:47;;;;;;;7.22;5.22;;;8.80;77.00;;;;;;5145072;27;20599;-60
2021/12/09 10:07:19;;;;;;;6.45;4.90;;;8.90;77.00;;;;;;5153513;27;20050;-60
2021/12/09 10:09:46;;;;;;;5.25;4.70;;;8.90;77.00;;;;;;5162587;27;20038;-59
2021/12/09 10:12:13;;;;;;;7.90;5.85;;;8.90;77.00;;;;;;5166137;27;20055;-60
2021/12/09 10:14:39;;;;;;;5.80;4.82;;;8.90;76.90;;;;;;5142388;27;20050;-59
2021/12/09 10:17:14;;;;;;;6.75;4.95;;;8.90;76.90;;;;;;5158879;27;20053;-60
2021/12/09 10:19:41;;;;;;;6.53;4.82;;;8.90;76.90;;;;;;5136390;27;20030;-59
2021/12/09 10:22:11;;;;;;;6.90;4.57;;;8.90;76.90;;;;;;5154039;27;20099;-59
2021/12/09 10:24:40;;;;;;;7.40;5.32;;;8.90;76.90;;;;;;5135261;27;20447;-59
2021/12/09 10:27:08;;;;;;;7.60;5.47;;;8.90;76.90;;;;;;5169740;27;20390;-60
2021/12/09 10:29:44;;;;;;;6.65;5.03;;;8.90;76.90;;;;;;5159301;27;20387;-60
2021/12/09 10:32:17;;;;;;;6.90;4.90;;;8.90;76.90;;;;;;5154914;27;20394;-60
2021/12/09 10:34:46;;;;;;;5.63;4.57;;;8.90;76.90;;;;;;5153423;27;20498;-60
2021/12/09 10:37:20;;;;;;;8.45;4.70;;;8.90;76.90;;;;;;5171564;27;20060;-60
2021/12/09 10:39:58;;;;;;;6.85;5.07;;;8.90;76.90;;;;;;5174398;27;20442;-59
2021/12/09 10:42:30;;;;;;;6.95;5.38;;;8.90;76.90;;;;;;5170723;27;20122;-60
2021/12/09 10:45:11;;;;;;;7.22;5.35;;;8.90;77.50;;;;;;5139756;27;20393;-59
2021/12/09 10:50:41;;;;;;;5.78;4.68;;;8.90;76.90;;;;;;5173682;27;20095;-59
2021/12/09 10:56:22;;;;;;;4.93;4.22;;;8.90;76.90;;;;;;5158987;27;20058;-59
2021/12/09 10:58:48;;;;;;;6.03;4.63;;;8.90;76.90;;;;;;5156694;27;20168;-58
2021/12/09 11:01:15;;;;;;;5.63;4.43;;;8.90;76.90;;;;;;5157289;27;20082;-59
2021/12/09 11:03:49;;;;;;;5.78;4.82;;;8.90;76.90;;;;;;5169577;27;20042;-60
2021/12/09 11:06:21;;;;;;;5.30;4.20;;;8.90;76.90;;;;;;5152900;27;20087;-60
2021/12/09 11:08:55;;;;;;;6.32;4.55;;;8.90;76.90;;;;;;5138611;27;20458;-60
2021/12/09 11:11:33;;;;;;;6.50;4.68;;;8.90;76.90;;;;;;5164181;27;20092;-59
2021/12/09 11:14:03;;;;;;;6.45;4.35;;;8.80;76.80;;;;;;5174505;27;20481;-59
2021/12/09 11:16:39;;;;;;;4.78;4.30;;;8.90;76.80;;;;;;5159200;27;20125;-60
2021/12/09 11:19:20;;;;;;;6.72;4.28;;;9.00;76.90;;;;;;5156711;27;20401;-59
2021/12/09 11:21:55;;;;;;;5.53;4.63;;;8.90;76.90;;;;;;5156512;27;20543;-59
2021/12/09 11:24:22;;;;;;;6.00;4.05;;;8.90;76.90;;;;;;5161025;27;20358;-59
2021/12/09 11:26:54;;;;;;;5.80;4.30;;;8.90;76.90;;;;;;5177794;27;20046;-59
2021/12/09 11:29:44;;;;;;;5.90;4.57;;;8.90;76.90;;;;;;5154756;27;20042;-60
2021/12/09 11:32:23;;;;;;;4.55;4.07;;;8.90;77.50;;;;;;5155422;27;20562;-60
2021/12/09 11:35:04;;;;;;;6.78;4.38;;;8.90;76.90;;;;;;5164494;27;20050;-59
2021/12/09 11:40:21;;;;;;;5.05;4.25;;;8.90;76.90;;;;;;5156118;27;20047;-60
2021/12/09 11:42:54;;;;;;;5.30;4.50;;;8.90;76.80;;;;;;5156391;27;20182;-60
2021/12/09 11:45:25;;;;;;;4.22;3.63;;;8.90;76.90;;;;;;5157037;27;20043;-60
2021/12/09 11:47:53;;;;;;;4.30;3.90;;;9.00;77.00;;;;;;5137371;27;20057;-60
2021/12/09 11:50:22;;;;;;;5.70;4.28;;;8.90;76.90;;;;;;5158555;27;20053;-60
2021/12/09 11:52:51;;;;;;;4.88;3.97;;;8.90;76.90;;;;;;5175447;27;20046;-60
2021/12/09 11:55:20;;;;;;;4.65;4.22;;;8.90;76.90;;;;;;5175178;27;20037;-59
2021/12/09 11:57:56;;;;;;;4.90;4.00;;;9.00;77.00;;;;;;5162756;27;20043;-60
2021/12/09 12:12:00;;;;;;;5.40;3.83;;;8.90;76.90;;;;;;5177034;27;20383;-60
2021/12/09 12:14:39;;;;;;;4.78;3.70;;;8.90;77.60;;;;;;5158181;27;20058;-59
2021/12/09 12:20:35;;;;;;;6.18;4.35;;;8.90;76.90;;;;;;5176451;27;20042;-60
2021/12/09 12:31:33;;;;;;;5.93;3.97;;;8.90;76.90;;;;;;5155872;27;20398;-59
2021/12/09 12:34:22;;;;;;;12.95;8.05;;;8.90;76.90;;;;;;5136610;27;20143;-63
2021/12/09 12:40:19;;;;;;;17.75;8.52;;;8.20;74.40;;;;;;5173800;27;20042;-59
2021/12/09 12:42:34;;;;;;;15.15;8.70;;;7.70;76.00;;;;;;5163755;27;20053;-60
2021/12/09 12:48:40;;;;;;;16.40;9.05;;;7.60;77.50;;;;;;5152886;27;20047;-59
2021/12/09 12:54:10;;;;;;;14.70;7.93;;;7.80;77.80;;;;;;5151439;27;20047;-59
2021/12/09 12:56:55;;;;;;;13.07;7.97;;;7.90;77.90;;;;;;5150921;27;20085;-58
2021/12/09 12:59:39;;;;;;;10.02;8.00;;;8.00;77.80;;;;;;5155804;27;20076;-57
2021/12/09 13:02:52;;;;;;;11.68;7.45;;;8.10;77.90;;;;;;5136739;27;20096;-58
2021/12/09 13:05:40;;;;;;;12.43;7.82;;;8.10;77.70;;;;;;5171867;27;20071;-59
2021/12/09 13:13:39;;;;;;;12.60;7.65;;;8.30;77.60;;;;;;5174583;27;20088;-58
2021/12/09 13:19:34;;;;;;;12.20;7.57;;;8.40;77.60;;;;;;5071213;28;20395;-58
2021/12/09 13:22:02;;;;;;;11.60;7.45;;;8.40;77.40;;;;;;5099472;28;20043;-57
2021/12/09 13:24:37;;;;;;;10.73;7.22;;;8.50;77.50;;;;;;5079486;28;20078;-58
2021/12/09 13:27:31;;;;;;;10.25;6.70;;;8.50;77.40;;;;;;5085308;28;20067;-58
2021/12/09 13:46:16;;;;;;;11.68;7.20;;;8.70;77.20;;;;;;5081193;28;20044;-58
2021/12/09 13:49:10;;;;;;;9.05;6.47;;;8.70;77.20;;;;;;5069930;28;20091;-60
2021/12/09 13:54:24;;;;;;;8.73;6.30;;;8.70;77.10;;;;;;5062042;28;20052;-58
2021/12/09 13:56:57;;;;;;;11.18;6.68;;;8.70;77.10;;;;;;5110820;27;20055;-60
2021/12/09 13:59:25;;;;;;;9.70;6.65;;;8.70;77.00;;;;;;5129676;27;20049;-59
2021/12/09 14:01:53;;;;;;;9.43;6.90;;;8.70;77.00;;;;;;5112011;27;20073;-59
2021/12/09 14:04:21;;;;;;;11.18;6.55;;;8.70;77.00;;;;;;5109497;28;20651;-60
2021/12/09 14:07:04;;;;;;;8.38;6.32;;;8.70;77.00;;;;;;5108732;28;20463;-60
2021/12/09 14:09:31;;;;;;;9.68;6.55;;;8.70;77.00;;;;;;5106948;28;20496;-60
2021/12/09 14:11:58;;;;;;;9.38;6.70;;;8.70;77.00;;;;;;5108992;28;20061;-59
2021/12/09 14:14:35;;;;;;;9.55;6.60;;;8.80;77.00;;;;;;5129550;27;20047;-60